createdAt,value
2017-08-29T00:00:29.519Z,18.93
2017-08-29T00:02:57.131Z,20.00
2017-08-29T00:05:24.749Z,21.13
2017-08-29T00:07:52.350Z,18.50
2017-08-29T00:10:19.936Z,21.03
2017-08-29T00:12:47.565Z,21.53
2017-08-29T00:15:15.192Z,24.77
2017-08-29T00:17:43.212Z,21.73
2017-08-29T00:20:10.835Z,20.40
2017-08-29T00:22:38.436Z,19.80
2017-08-29T00:25:06.053Z,20.20
2017-08-29T00:27:33.631Z,19.47
2017-08-29T00:30:01.249Z,18.33
2017-08-29T00:32:28.914Z,19.63
2017-08-29T00:34:56.548Z,20.07
2017-08-29T00:37:24.137Z,19.63
2017-08-29T00:39:52.134Z,20.20
2017-08-29T00:42:19.747Z,20.87
2017-08-29T00:44:47.344Z,20.50
2017-08-29T00:47:15.314Z,19.53
2017-08-29T00:49:42.917Z,20.23
2017-08-29T00:52:10.532Z,22.23
2017-08-29T00:54:38.134Z,23.07
2017-08-29T00:57:05.790Z,23.17
2017-08-29T00:59:33.580Z,22.17
2017-08-29T01:02:01.311Z,22.10
2017-08-29T01:04:28.900Z,23.00
2017-08-29T01:06:57.192Z,24.00
2017-08-29T01:09:25.279Z,22.27
2017-08-29T01:11:52.894Z,22.67
2017-08-29T01:14:20.592Z,20.60
2017-08-29T01:16:48.209Z,25.73
2017-08-29T01:19:15.984Z,22.80
2017-08-29T01:21:43.574Z,21.83
2017-08-29T01:24:11.362Z,28.70
2017-08-29T01:26:38.942Z,27.03
2017-08-29T01:29:06.699Z,22.10
2017-08-29T01:31:34.300Z,22.70
2017-08-29T01:34:01.914Z,23.83
2017-08-29T01:36:29.536Z,23.40
2017-08-29T01:38:57.122Z,23.67
2017-08-29T01:41:24.782Z,24.33
2017-08-29T01:43:52.403Z,22.60
2017-08-29T01:46:20.098Z,25.03
2017-08-29T01:48:47.697Z,23.20
2017-08-29T01:51:15.313Z,26.47
2017-08-29T01:53:42.921Z,25.57
2017-08-29T01:56:10.540Z,22.00
2017-08-29T01:58:38.137Z,24.33
2017-08-29T02:01:06.128Z,26.57
2017-08-29T02:03:33.717Z,27.00
2017-08-29T02:06:01.328Z,26.20
2017-08-29T02:08:28.950Z,22.80
2017-08-29T02:10:56.555Z,27.53
2017-08-29T02:13:24.267Z,34.50
2017-08-29T02:15:51.944Z,26.27
2017-08-29T02:18:19.561Z,24.00
2017-08-29T02:20:47.179Z,25.10
2017-08-29T02:23:14.796Z,34.47
2017-08-29T02:25:42.407Z,26.10
2017-08-29T02:28:10.395Z,25.83
2017-08-29T02:30:37.970Z,21.70
2017-08-29T02:33:05.583Z,25.77
2017-08-29T02:35:33.223Z,23.10
2017-08-29T02:38:01.840Z,28.30
2017-08-29T02:40:29.583Z,23.13
2017-08-29T02:42:57.181Z,24.83
2017-08-29T02:45:24.803Z,25.93
2017-08-29T02:47:52.409Z,29.23
2017-08-29T02:50:20.320Z,25.23
2017-08-29T02:52:47.940Z,28.47
2017-08-29T02:55:15.523Z,29.67
2017-08-29T02:57:43.135Z,25.90
2017-08-29T03:00:10.713Z,31.10
2017-08-29T03:02:44.227Z,29.07
2017-08-29T03:05:11.845Z,31.30
2017-08-29T03:07:39.515Z,31.30
2017-08-29T03:10:07.148Z,29.73
2017-08-29T03:12:34.728Z,28.67
2017-08-29T03:15:02.340Z,32.23
2017-08-29T03:17:30.019Z,37.00
2017-08-29T03:19:57.623Z,28.40
2017-08-29T03:22:25.242Z,29.33
2017-08-29T03:24:52.855Z,28.60
2017-08-29T03:27:20.486Z,28.93
2017-08-29T03:29:48.090Z,30.00
2017-08-29T03:32:15.743Z,26.60
2017-08-29T03:34:43.352Z,35.33
2017-08-29T03:37:10.958Z,31.63
2017-08-29T03:39:38.572Z,29.30
2017-08-29T03:42:06.167Z,27.23
2017-08-29T03:44:33.792Z,36.80
2017-08-29T03:47:01.419Z,30.10
2017-08-29T03:49:29.013Z,27.13
2017-08-29T03:51:56.620Z,29.10
2017-08-29T03:54:24.208Z,34.63
2017-08-29T03:56:51.835Z,30.07
2017-08-29T03:59:19.430Z,31.00
2017-08-29T04:01:47.066Z,32.30
2017-08-29T04:04:14.674Z,38.23
2017-08-29T04:06:42.343Z,34.20
2017-08-29T04:09:10.005Z,31.83
2017-08-29T04:11:37.605Z,32.53
2017-08-29T04:14:05.254Z,33.80
2017-08-29T04:16:33.023Z,39.20
2017-08-29T04:19:00.677Z,36.90
2017-08-29T04:21:28.258Z,34.43
2017-08-29T04:23:55.882Z,34.53
2017-08-29T04:26:23.480Z,34.90
2017-08-29T04:28:51.587Z,39.70
2017-08-29T04:31:19.170Z,37.40
2017-08-29T04:33:46.780Z,37.50
2017-08-29T04:36:14.409Z,35.50
2017-08-29T04:38:42.024Z,41.23
2017-08-29T04:41:09.657Z,34.80
2017-08-29T04:43:37.258Z,40.77
2017-08-29T04:46:04.865Z,36.77
2017-08-29T04:48:32.488Z,34.90
2017-08-29T04:51:00.117Z,37.50
2017-08-29T04:53:27.827Z,39.17
2017-08-29T04:55:55.437Z,39.23
2017-08-29T04:58:23.077Z,40.27
2017-08-29T05:00:50.702Z,41.27
2017-08-29T05:03:18.322Z,43.90
2017-08-29T05:05:45.900Z,46.20
2017-08-29T05:08:13.527Z,53.90
2017-08-29T05:10:41.127Z,56.57
2017-08-29T05:13:08.757Z,52.17
2017-08-29T05:15:36.357Z,56.90
2017-08-29T05:18:03.951Z,54.10
2017-08-29T05:20:31.547Z,48.77
2017-08-29T05:22:59.150Z,52.77
2017-08-29T05:25:26.838Z,47.00
2017-08-29T05:27:54.449Z,42.50
2017-08-29T05:30:22.108Z,35.90
2017-08-29T05:32:49.709Z,38.03
2017-08-29T05:35:17.309Z,32.47
2017-08-29T05:37:44.913Z,29.63
2017-08-29T05:40:13.078Z,27.53
2017-08-29T05:42:40.713Z,27.63
2017-08-29T05:45:08.332Z,28.13
2017-08-29T05:47:35.941Z,29.77
2017-08-29T05:50:03.565Z,31.33
2017-08-29T05:52:31.191Z,24.90
2017-08-29T05:54:58.811Z,26.40
2017-08-29T05:57:26.503Z,24.00
2017-08-29T05:59:54.120Z,26.70
2017-08-29T06:02:21.764Z,25.43
2017-08-29T06:04:49.447Z,22.83
2017-08-29T06:07:17.064Z,23.33
2017-08-29T06:09:44.685Z,24.77
2017-08-29T06:12:12.292Z,24.37
2017-08-29T06:14:39.936Z,22.20
2017-08-29T06:17:07.533Z,27.67
2017-08-29T06:19:35.148Z,20.37
2017-08-29T06:22:02.845Z,21.30
2017-08-29T06:24:30.457Z,26.27
2017-08-29T06:26:58.099Z,22.77
2017-08-29T06:29:25.702Z,21.33
2017-08-29T06:31:53.340Z,22.00
2017-08-29T06:34:20.986Z,23.53
2017-08-29T06:36:48.717Z,23.70
2017-08-29T06:39:16.327Z,22.40
2017-08-29T06:41:44.223Z,17.80
2017-08-29T06:44:11.847Z,17.87
2017-08-29T06:46:39.604Z,24.60
2017-08-29T06:49:07.247Z,18.57
2017-08-29T06:51:34.846Z,19.40
2017-08-29T06:54:08.546Z,18.60
2017-08-29T06:56:36.133Z,20.40
2017-08-29T06:59:03.769Z,19.70
2017-08-29T07:01:31.378Z,19.23
2017-08-29T07:03:59.011Z,23.03
2017-08-29T07:06:26.617Z,19.57
2017-08-29T07:08:54.237Z,18.30
2017-08-29T07:11:21.861Z,18.87
2017-08-29T07:13:49.536Z,19.20
2017-08-29T07:16:17.165Z,17.60
2017-08-29T07:18:44.793Z,17.90
2017-08-29T07:21:12.413Z,22.80
2017-08-29T07:23:40.171Z,19.97
2017-08-29T07:26:07.821Z,19.10
2017-08-29T07:28:35.449Z,19.93
2017-08-29T07:31:03.337Z,18.70
2017-08-29T07:33:30.962Z,21.77
2017-08-29T07:35:58.563Z,21.70
2017-08-29T07:38:26.265Z,17.77
2017-08-29T07:40:54.030Z,32.40
2017-08-29T07:43:21.888Z,19.03
2017-08-29T07:45:49.493Z,15.37
2017-08-29T07:48:17.106Z,20.70
2017-08-29T07:50:44.749Z,19.70
2017-08-29T07:53:12.386Z,19.47
2017-08-29T07:55:39.978Z,18.23
2017-08-29T07:58:07.944Z,18.50
2017-08-29T08:00:35.562Z,17.07
2017-08-29T08:03:03.186Z,17.37
2017-08-29T08:05:30.966Z,18.80
2017-08-29T08:07:58.612Z,16.93
2017-08-29T08:10:26.250Z,18.03
2017-08-29T08:12:53.907Z,13.90
2017-08-29T08:15:21.513Z,16.50
2017-08-29T08:17:49.339Z,17.33
2017-08-29T08:20:16.961Z,16.13
2017-08-29T08:22:44.583Z,16.87
2017-08-29T08:25:12.527Z,17.43
2017-08-29T08:27:40.122Z,18.20
2017-08-29T08:30:07.793Z,17.60
2017-08-29T08:32:35.441Z,20.83
2017-08-29T08:35:03.081Z,16.83
2017-08-29T08:37:30.752Z,16.70
2017-08-29T08:39:58.343Z,17.57
2017-08-29T08:42:26.010Z,20.43
2017-08-29T08:44:53.808Z,21.03
2017-08-29T08:47:21.432Z,18.67
2017-08-29T08:49:49.139Z,17.70
2017-08-29T08:52:17.295Z,17.47
2017-08-29T08:54:44.907Z,19.03
2017-08-29T08:57:12.723Z,18.93
2017-08-29T08:59:40.402Z,17.93
2017-08-29T09:02:08.018Z,20.60
2017-08-29T09:04:35.665Z,18.63
2017-08-29T09:07:03.280Z,19.77
2017-08-29T09:09:30.911Z,18.60
2017-08-29T09:11:58.529Z,18.37
2017-08-29T09:14:26.439Z,27.87
2017-08-29T09:16:54.036Z,26.73
2017-08-29T09:19:21.654Z,21.90
2017-08-29T09:21:49.271Z,22.50
2017-08-29T09:24:16.913Z,22.23
2017-08-29T09:26:44.629Z,21.40
2017-08-29T09:29:12.225Z,19.80
2017-08-29T09:31:39.862Z,17.40
2017-08-29T09:34:07.476Z,21.13
2017-08-29T09:36:35.136Z,22.87
2017-08-29T09:39:02.735Z,17.97
2017-08-29T09:41:30.359Z,25.97
2017-08-29T09:43:57.982Z,21.97
2017-08-29T09:46:26.010Z,24.27
2017-08-29T09:48:53.615Z,38.73
2017-08-29T09:51:21.225Z,29.27
2017-08-29T09:53:48.916Z,17.37
2017-08-29T09:56:16.540Z,16.67
2017-08-29T09:58:44.184Z,17.83
2017-08-29T10:01:11.814Z,18.30
2017-08-29T10:03:39.612Z,20.83
2017-08-29T10:06:07.274Z,27.63
2017-08-29T10:08:34.930Z,18.93
2017-08-29T10:11:02.562Z,17.30
2017-08-29T10:13:30.189Z,19.03
2017-08-29T10:15:57.799Z,17.90
2017-08-29T10:18:25.437Z,19.73
2017-08-29T10:20:53.302Z,17.17
2017-08-29T10:23:20.933Z,21.03
2017-08-29T10:25:48.547Z,17.10
2017-08-29T10:28:16.144Z,18.77
2017-08-29T10:30:43.772Z,28.57
2017-08-29T10:33:11.985Z,17.57
2017-08-29T10:35:39.687Z,16.60
2017-08-29T10:38:07.295Z,17.20
2017-08-29T10:40:34.950Z,17.90
2017-08-29T10:43:02.588Z,16.07
2017-08-29T10:45:30.198Z,17.27
2017-08-29T10:47:57.840Z,15.63
2017-08-29T10:50:25.428Z,15.63
2017-08-29T10:52:53.027Z,13.67
2017-08-29T10:55:20.736Z,9.47
2017-08-29T10:57:48.541Z,11.63
2017-08-29T11:00:16.254Z,11.63
2017-08-29T11:02:43.895Z,12.63
2017-08-29T11:05:11.472Z,8.83
2017-08-29T11:07:39.063Z,10.07
2017-08-29T11:10:06.708Z,8.20
2017-08-29T11:12:34.309Z,8.70
2017-08-29T11:15:01.920Z,8.80
2017-08-29T11:17:29.515Z,13.80
2017-08-29T11:19:57.146Z,12.63
2017-08-29T11:22:24.757Z,11.10
2017-08-29T11:24:52.427Z,11.73
2017-08-29T11:27:20.098Z,16.67
2017-08-29T11:29:47.686Z,9.77
2017-08-29T11:32:15.334Z,8.13
2017-08-29T11:34:42.924Z,9.20
2017-08-29T11:37:10.528Z,8.23
2017-08-29T11:39:38.106Z,9.43
2017-08-29T11:42:05.722Z,8.50
2017-08-29T11:44:33.312Z,10.63
2017-08-29T11:47:00.926Z,8.80
2017-08-29T11:49:28.499Z,8.27
2017-08-29T11:51:56.142Z,8.20
2017-08-29T11:54:23.776Z,10.00
2017-08-29T11:56:51.374Z,11.17
2017-08-29T11:59:19.657Z,8.03
2017-08-29T12:01:47.246Z,7.83
2017-08-29T12:04:15.014Z,9.77
2017-08-29T12:06:42.636Z,17.57
2017-08-29T12:09:10.256Z,7.40
2017-08-29T12:11:37.868Z,7.47
2017-08-29T12:14:05.499Z,8.13
2017-08-29T12:16:33.100Z,8.03
2017-08-29T12:19:00.701Z,9.80
2017-08-29T12:21:28.308Z,8.20
2017-08-29T12:23:55.912Z,12.60
2017-08-29T12:26:23.552Z,10.93
2017-08-29T12:28:51.161Z,10.30
2017-08-29T12:31:18.806Z,8.70
2017-08-29T12:33:46.405Z,9.03
2017-08-29T12:36:14.045Z,8.60
2017-08-29T12:38:41.687Z,9.40
2017-08-29T12:41:09.389Z,15.20
2017-08-29T12:43:36.982Z,6.70
2017-08-29T12:46:04.576Z,10.50
2017-08-29T12:48:32.210Z,6.80
2017-08-29T12:50:59.823Z,6.50
2017-08-29T12:53:27.464Z,5.47
2017-08-29T12:55:55.115Z,6.20
2017-08-29T12:58:22.703Z,6.40
2017-08-29T13:00:50.300Z,6.43
2017-08-29T13:03:18.289Z,5.70
2017-08-29T13:05:45.883Z,6.47
2017-08-29T13:08:13.496Z,6.57
2017-08-29T13:10:41.109Z,5.87
2017-08-29T13:13:08.669Z,5.30
2017-08-29T13:15:36.313Z,7.30
2017-08-29T13:18:03.953Z,7.83
2017-08-29T13:20:31.572Z,6.13
2017-08-29T13:22:59.179Z,5.93
2017-08-29T13:25:26.836Z,5.97
2017-08-29T13:27:54.426Z,8.50
2017-08-29T13:30:22.373Z,6.60
2017-08-29T13:32:50.007Z,5.50
2017-08-29T13:35:17.637Z,6.07
2017-08-29T13:37:45.529Z,5.03
2017-08-29T13:40:13.136Z,6.67
2017-08-29T13:42:40.786Z,5.07
2017-08-29T13:45:08.413Z,8.33
2017-08-29T13:47:36.038Z,5.10
2017-08-29T13:50:03.636Z,4.87
2017-08-29T13:52:31.626Z,5.20
2017-08-29T13:54:59.217Z,5.37
2017-08-29T13:57:26.884Z,5.47
2017-08-29T13:59:54.509Z,4.80
2017-08-29T14:02:22.113Z,5.30
2017-08-29T14:04:49.744Z,5.13
2017-08-29T14:07:17.347Z,5.67
2017-08-29T14:09:45.005Z,5.03
2017-08-29T14:12:12.611Z,5.10
2017-08-29T14:14:40.410Z,4.40
2017-08-29T14:17:08.024Z,5.00
2017-08-29T14:19:36.886Z,10.10
2017-08-29T14:22:04.516Z,4.90
2017-08-29T14:24:32.150Z,4.37
2017-08-29T14:27:00.083Z,5.10
2017-08-29T14:29:27.682Z,6.60
2017-08-29T14:31:55.296Z,5.00
2017-08-29T14:34:22.964Z,5.67
2017-08-29T14:36:50.565Z,3.97
2017-08-29T14:39:18.289Z,4.13
2017-08-29T14:41:45.895Z,4.40
2017-08-29T14:44:13.872Z,4.30
2017-08-29T14:46:53.426Z,6.50
2017-08-29T14:49:21.376Z,5.80
2017-08-29T14:51:48.971Z,12.57
2017-08-29T14:54:16.698Z,4.83
2017-08-29T14:56:44.295Z,6.00
2017-08-29T14:59:11.870Z,4.30
2017-08-29T15:01:39.921Z,5.83
2017-08-29T15:04:07.504Z,3.50
2017-08-29T15:06:35.095Z,4.10
2017-08-29T15:09:02.718Z,4.33
2017-08-29T15:11:30.301Z,5.60
2017-08-29T15:13:57.977Z,4.10
2017-08-29T15:16:25.686Z,5.57
2017-08-29T15:18:53.307Z,5.20
2017-08-29T15:21:20.907Z,3.80
2017-08-29T15:23:48.591Z,4.00
2017-08-29T15:26:16.214Z,4.13
2017-08-29T15:28:43.805Z,3.73
2017-08-29T15:31:11.418Z,3.50
2017-08-29T15:33:39.004Z,3.50
2017-08-29T15:36:06.645Z,4.87
2017-08-29T15:38:34.237Z,4.50
2017-08-29T15:41:01.863Z,3.90
2017-08-29T15:43:29.446Z,3.60
2017-08-29T15:45:57.409Z,4.07
2017-08-29T15:48:24.997Z,3.90
2017-08-29T15:50:52.586Z,3.83
2017-08-29T15:53:20.189Z,3.77
2017-08-29T15:55:47.788Z,4.50
2017-08-29T15:58:15.384Z,3.40
2017-08-29T16:00:43.103Z,4.30
2017-08-29T16:03:10.720Z,4.30
2017-08-29T16:05:38.347Z,4.43
2017-08-29T16:08:05.961Z,4.00
2017-08-29T16:10:33.561Z,4.50
2017-08-29T16:13:01.232Z,5.30
2017-08-29T16:15:28.829Z,4.43
2017-08-29T16:17:56.710Z,7.70
2017-08-29T16:20:24.308Z,4.57
2017-08-29T16:22:51.906Z,4.30
2017-08-29T16:25:19.613Z,8.50
2017-08-29T16:27:47.261Z,4.50
2017-08-29T16:30:14.886Z,5.23
2017-08-29T16:32:42.485Z,8.63
2017-08-29T16:35:10.243Z,6.20
2017-08-29T16:37:37.857Z,4.20
2017-08-29T16:40:05.781Z,5.50
2017-08-29T16:42:33.475Z,4.70
2017-08-29T16:45:01.084Z,5.63
2017-08-29T16:47:28.711Z,4.90
2017-08-29T16:49:56.450Z,4.40
2017-08-29T16:52:24.107Z,7.40
2017-08-29T16:54:51.725Z,6.30
2017-08-29T16:57:20.491Z,4.80
2017-08-29T16:59:48.089Z,4.87
2017-08-29T17:02:15.728Z,5.37
2017-08-29T17:04:43.345Z,9.37
2017-08-29T17:07:11.059Z,7.60
2017-08-29T17:09:38.640Z,5.47
2017-08-29T17:12:06.384Z,9.97
2017-08-29T17:14:34.009Z,5.53
2017-08-29T17:17:01.951Z,5.47
2017-08-29T17:19:29.573Z,5.40
2017-08-29T17:21:57.183Z,6.20
2017-08-29T17:24:25.044Z,6.00
2017-08-29T17:26:52.648Z,6.13
2017-08-29T17:29:20.263Z,8.03
2017-08-29T17:31:47.846Z,5.37
2017-08-29T17:34:15.628Z,6.23
2017-08-29T17:36:43.230Z,7.03
2017-08-29T17:39:11.202Z,9.70
2017-08-29T17:41:38.836Z,6.70
2017-08-29T17:44:06.434Z,9.40
2017-08-29T17:46:34.073Z,4.50
2017-08-29T17:49:01.685Z,12.43
2017-08-29T17:51:29.313Z,6.67
2017-08-29T17:53:56.954Z,5.50
2017-08-29T17:56:24.674Z,8.80
2017-08-29T17:58:52.288Z,6.90
2017-08-29T18:01:19.915Z,11.23
2017-08-29T18:03:47.551Z,5.93
2017-08-29T18:06:15.457Z,13.90
2017-08-29T18:08:43.059Z,8.90
2017-08-29T18:11:10.685Z,10.53
2017-08-29T18:13:38.306Z,5.33
2017-08-29T18:16:05.898Z,6.07
2017-08-29T18:18:33.510Z,18.47
2017-08-29T18:21:01.194Z,19.30
2017-08-29T18:23:28.804Z,11.57
2017-08-29T18:25:56.524Z,9.23
2017-08-29T18:28:24.787Z,9.20
2017-08-29T18:30:52.378Z,7.73
2017-08-29T18:33:20.158Z,9.70
2017-08-29T18:35:47.794Z,10.03
2017-08-29T18:38:15.678Z,12.17
2017-08-29T18:40:43.285Z,14.10
2017-08-29T18:43:10.912Z,16.40
2017-08-29T18:45:38.542Z,13.93
2017-08-29T18:48:06.199Z,16.17
2017-08-29T18:50:33.799Z,16.60
2017-08-29T18:53:01.396Z,12.53
2017-08-29T18:55:29.045Z,10.20
2017-08-29T18:57:56.655Z,12.30
2017-08-29T19:00:24.280Z,11.43
2017-08-29T19:02:52.063Z,13.67
2017-08-29T19:05:20.046Z,9.07
2017-08-29T19:07:47.662Z,6.90
2017-08-29T19:10:15.348Z,8.70
2017-08-29T19:12:43.043Z,8.27
2017-08-29T19:15:10.634Z,10.20
2017-08-29T19:17:38.288Z,8.80
2017-08-29T19:20:05.965Z,7.00
2017-08-29T19:22:33.571Z,9.07
2017-08-29T19:25:01.181Z,10.27
2017-08-29T19:27:28.846Z,7.73
2017-08-29T19:29:56.451Z,9.20
2017-08-29T19:32:24.642Z,8.90
2017-08-29T19:34:52.275Z,10.87
2017-08-29T19:37:19.912Z,10.30
2017-08-29T19:39:47.522Z,9.07
2017-08-29T19:42:15.198Z,6.97
2017-08-29T19:44:43.017Z,8.90
2017-08-29T19:47:10.638Z,6.60
2017-08-29T19:49:38.289Z,6.40
2017-08-29T19:52:05.946Z,8.60
2017-08-29T19:54:33.646Z,6.63
2017-08-29T19:57:01.235Z,6.03
2017-08-29T19:59:29.135Z,8.40
2017-08-29T20:01:56.835Z,8.23
2017-08-29T20:04:24.506Z,7.50
2017-08-29T20:06:52.218Z,13.37
2017-08-29T20:09:19.921Z,7.60
2017-08-29T20:11:47.532Z,6.07
2017-08-29T20:14:15.104Z,7.53
2017-08-29T20:16:42.725Z,8.70
2017-08-29T20:19:10.498Z,7.17
2017-08-29T20:21:38.135Z,9.00
2017-08-29T20:24:05.895Z,11.90
2017-08-29T20:26:33.519Z,6.90
2017-08-29T20:29:01.200Z,12.03
2017-08-29T20:31:29.098Z,7.80
2017-08-29T20:33:56.838Z,8.60
2017-08-29T20:36:24.449Z,6.37
2017-08-29T20:38:52.083Z,8.70
2017-08-29T20:41:19.694Z,7.47
2017-08-29T20:43:47.326Z,7.93
2017-08-29T20:46:15.112Z,11.60
2017-08-29T20:48:42.728Z,6.20
2017-08-29T20:51:10.431Z,7.40
2017-08-29T20:53:38.064Z,7.77
2017-08-29T20:56:05.645Z,9.97
2017-08-29T20:58:33.606Z,9.20
2017-08-29T21:01:01.232Z,7.83
2017-08-29T21:03:29.012Z,8.60
2017-08-29T21:05:56.630Z,8.47
2017-08-29T21:08:24.220Z,7.47
2017-08-29T21:10:51.877Z,7.47
2017-08-29T21:13:19.550Z,7.97
2017-08-29T21:15:47.180Z,9.30
2017-08-29T21:18:14.814Z,8.93
2017-08-29T21:20:42.436Z,10.40
2017-08-29T21:23:10.054Z,7.80
2017-08-29T21:25:37.754Z,6.57
2017-08-29T21:28:05.341Z,7.93
2017-08-29T21:30:33.328Z,8.10
2017-08-29T21:33:00.925Z,7.67
2017-08-29T21:35:28.528Z,7.83
2017-08-29T21:37:56.550Z,8.10
2017-08-29T21:40:24.153Z,8.93
2017-08-29T21:42:51.773Z,7.50
2017-08-29T21:45:19.387Z,8.87
2017-08-29T21:47:47.012Z,9.63
2017-08-29T21:50:14.617Z,9.63
2017-08-29T21:52:42.215Z,8.07
2017-08-29T21:55:09.822Z,10.30
2017-08-29T21:57:37.950Z,9.00
2017-08-29T22:00:05.702Z,8.93
2017-08-29T22:02:33.309Z,8.70
2017-08-29T22:05:00.996Z,7.77
2017-08-29T22:07:28.584Z,8.20
2017-08-29T22:09:56.200Z,6.53
2017-08-29T22:12:23.840Z,7.50
2017-08-29T22:14:51.429Z,7.00
2017-08-29T22:17:19.139Z,7.33
2017-08-29T22:19:46.751Z,8.27
2017-08-29T22:22:14.323Z,8.50
2017-08-29T22:24:42.227Z,13.37
2017-08-29T22:27:09.829Z,9.50
2017-08-29T22:29:37.425Z,11.77
2017-08-29T22:32:05.126Z,8.60
2017-08-29T22:34:32.725Z,11.40
2017-08-29T22:37:00.460Z,10.33
2017-08-29T22:39:28.041Z,7.27
2017-08-29T22:41:55.660Z,7.83
2017-08-29T22:44:23.264Z,8.30
2017-08-29T22:46:50.888Z,7.50
2017-08-29T22:49:18.481Z,7.70
2017-08-29T22:51:46.078Z,8.73
2017-08-29T22:54:13.658Z,7.00
2017-08-29T22:56:41.274Z,7.20
2017-08-29T22:59:08.829Z,7.63
2017-08-29T23:01:36.816Z,10.00
2017-08-29T23:04:04.389Z,8.13
2017-08-29T23:06:32.007Z,8.57
2017-08-29T23:08:59.624Z,10.40
2017-08-29T23:11:27.226Z,7.60
2017-08-29T23:13:54.850Z,9.80
2017-08-29T23:16:22.448Z,9.13
2017-08-29T23:18:50.010Z,9.00
2017-08-29T23:21:17.617Z,8.77
2017-08-29T23:23:45.299Z,10.60
2017-08-29T23:26:12.875Z,10.20
2017-08-29T23:28:40.485Z,10.40
2017-08-29T23:31:08.066Z,8.73
2017-08-29T23:33:35.676Z,8.63
2017-08-29T23:36:03.286Z,11.97
2017-08-29T23:38:31.565Z,12.43
2017-08-29T23:40:59.235Z,14.47
2017-08-29T23:43:26.819Z,10.07
2017-08-29T23:45:54.434Z,10.00
2017-08-29T23:48:22.130Z,10.47
2017-08-29T23:50:49.741Z,10.30
2017-08-29T23:53:17.320Z,7.67
2017-08-29T23:55:44.963Z,9.60
2017-08-29T23:58:12.556Z,12.20
